PWSweather.com
Personal Weather Stations
Station Observations
CARINAWX
Carina, Brisbane, CarinaAU 4152

Carina, BrisbaneCarinaAU 4152

Lat: -27.484465, Lon: 153.095321

Elevation: 52

Station Type: Davis Vantage Vue #6357

http://www.kstwx.net/index.php

Latest ConditionsUpdated 5:30:00 PM GMT+10:10 Thursday, Dec 12, 2019
Currently Today's Max Today's Min Today's Average
Temperature 81.8°F27.7°C 90.6°F32.6°C 68.7°F20.4°C 81.5°F27.5°C
Dew Point 72.7°F22.6°C 75.2°F24.0°C 66.9°F19.4°C 72.1°F22.3°C
Winds 2.0 mph WSW3.2 kmh WSW 3.0 mph -4.8 kmh - - 1.0 mph 1.6 kmh
Wind Gusts 7.0 mph11.3 kmh 9.0 mph14.5 kmh - -
Humidity 74% 94% 56% 75%
Pressure 29.81 in1009.5 mb 29.87 in1011.5 mb 29.77 in1008.1 mb -
Precipitation - 0.06 in1.5 mm - -
Hour Temp Dew Point Humidity Winds Wind Gusts Pressure Precip Precip Rate Daily Precip Total
05:30 PM 81.8°F27.7°C 72.7°F22.6°C 74% 2.0 mph WSW3.2 kmh WSW 7.0 mph11.3 kmh 29.81 in1009.5 mb 0.00 in0.0 mm 0.00 in0.0 mm 0.06 in1.5 mm
05:00 PM 83.7°F28.7°C 70.7°F21.5°C 65% 2.0 mph WSW3.2 kmh WSW 7.0 mph11.3 kmh 29.77 in1008.1 mb 0.00 in0.0 mm 0.00 in0.0 mm 0.06 in1.5 mm
04:30 PM 86.7°F30.4°C 73.5°F23.1°C 65% 1.9 mph W3.1 kmh W 6.0 mph9.7 kmh 29.77 in1008.1 mb 0.00 in0.0 mm 0.00 in0.0 mm 0.06 in1.5 mm
04:00 PM 87.3°F30.7°C 74.1°F23.4°C 65% 1.8 mph W2.9 kmh W 6.0 mph9.7 kmh 29.77 in1008.1 mb 0.00 in0.0 mm 0.00 in0.0 mm 0.06 in1.5 mm
03:30 PM 87.8°F31.0°C 72.7°F22.6°C 61% 3.0 mph WNW4.8 kmh WNW 9.0 mph14.5 kmh 29.77 in1008.1 mb 0.00 in0.0 mm 0.00 in0.0 mm 0.06 in1.5 mm
03:00 PM 89.6°F32.0°C 73.4°F23.0°C 59% 1.7 mph ESE2.7 kmh ESE 6.0 mph9.7 kmh 29.78 in1008.5 mb 0.00 in0.0 mm 0.00 in0.0 mm 0.06 in1.5 mm
02:30 PM 89.2°F31.8°C 75.0°F23.9°C 63% 2.0 mph E3.2 kmh E 9.0 mph14.5 kmh 29.79 in1008.8 mb 0.00 in0.0 mm 0.00 in0.0 mm 0.06 in1.5 mm
02:00 PM 90.6°F32.6°C 72.8°F22.7°C 56% 1.1 mph E1.8 kmh E 6.0 mph9.7 kmh 29.79 in1008.8 mb 0.00 in0.0 mm 0.00 in0.0 mm 0.06 in1.5 mm
01:30 PM 89.0°F31.7°C 73.8°F23.2°C 61% 2.0 mph E3.2 kmh E 7.0 mph11.3 kmh 29.80 in1009.1 mb 0.00 in0.0 mm 0.00 in0.0 mm 0.06 in1.5 mm
01:00 PM 89.7°F32.1°C 74.0°F23.3°C 60% 2.0 mph E3.2 kmh E 8.0 mph12.9 kmh 29.80 in1009.1 mb 0.00 in0.0 mm 0.00 in0.0 mm 0.06 in1.5 mm
12:30 PM 89.7°F32.1°C 74.5°F23.6°C 61% 1.7 mph E2.7 kmh E 5.0 mph8.0 kmh 29.81 in1009.5 mb 0.00 in0.0 mm 0.00 in0.0 mm 0.06 in1.5 mm
12:00 PM 90.2°F32.3°C 74.9°F23.8°C 61% 1.0 mph E1.6 kmh E 5.0 mph8.0 kmh 29.83 in1010.2 mb 0.00 in0.0 mm 0.00 in0.0 mm 0.06 in1.5 mm
11:30 AM 88.0°F31.1°C 75.2°F24.0°C 66% 1.3 mph E2.1 kmh E 6.0 mph9.7 kmh 29.84 in1010.5 mb 0.00 in0.0 mm 0.00 in0.0 mm 0.06 in1.5 mm
11:00 AM 87.4°F30.8°C 74.2°F23.4°C 65% 1.3 mph E2.1 kmh E 4.0 mph6.4 kmh 29.85 in1010.8 mb 0.00 in0.0 mm 0.00 in0.0 mm 0.06 in1.5 mm
10:30 AM 86.6°F30.3°C 74.8°F23.8°C 68% 1.1 mph E1.8 kmh E 4.0 mph6.4 kmh 29.85 in1010.8 mb 0.00 in0.0 mm 0.00 in0.0 mm 0.06 in1.5 mm
10:00 AM 86.0°F30.0°C 75.1°F23.9°C 70% 1.0 mph ESE1.6 kmh ESE 4.0 mph6.4 kmh 29.85 in1010.8 mb 0.00 in0.0 mm 0.00 in0.0 mm 0.06 in1.5 mm
09:30 AM 85.0°F29.4°C 74.1°F23.4°C 70% 0.8 mph W1.3 kmh W 3.0 mph4.8 kmh 29.86 in1011.2 mb 0.00 in0.0 mm 0.00 in0.0 mm 0.06 in1.5 mm
09:00 AM 84.4°F29.1°C 75.2°F24.0°C 74% Calm Calm 1.0 mph1.6 kmh 29.87 in1011.5 mb 0.00 in0.0 mm 0.00 in0.0 mm 0.06 in1.5 mm
08:30 AM 80.8°F27.1°C 73.7°F23.2°C 79% Calm Calm 1.0 mph1.6 kmh 29.87 in1011.5 mb 0.00 in0.0 mm 0.00 in0.0 mm 0.06 in1.5 mm
08:00 AM 80.8°F27.1°C 73.3°F22.9°C 78% Calm Calm 2.0 mph3.2 kmh 29.86 in1011.2 mb 0.00 in0.0 mm 0.00 in0.0 mm 0.06 in1.5 mm
07:00 AM 72.9°F22.7°C 71.1°F21.7°C 94% Calm Calm 3.0 mph4.8 kmh 29.85 in1010.8 mb 0.00 in0.0 mm 0.00 in0.0 mm 0.06 in1.5 mm
06:30 AM 70.4°F21.3°C 68.6°F20.3°C 94% Calm Calm 1.0 mph1.6 kmh 29.85 in1010.8 mb 0.00 in0.0 mm 0.00 in0.0 mm 0.06 in1.5 mm
06:00 AM 70.2°F21.2°C 68.4°F20.2°C 94% Calm Calm -- 29.84 in1010.5 mb 0.00 in0.0 mm 0.00 in0.0 mm 0.06 in1.5 mm
05:30 AM 69.6°F20.9°C 67.8°F19.9°C 94% Calm Calm 1.0 mph1.6 kmh 29.82 in1009.8 mb 0.00 in0.0 mm 0.00 in0.0 mm 0.06 in1.5 mm
05:00 AM 69.2°F20.7°C 67.4°F19.7°C 94% Calm Calm 2.0 mph3.2 kmh 29.82 in1009.8 mb 0.00 in0.0 mm 0.00 in0.0 mm 0.06 in1.5 mm
04:30 AM 68.7°F20.4°C 66.9°F19.4°C 94% 0.4 mph WNW0.6 kmh WNW 3.0 mph4.8 kmh 29.82 in1009.8 mb 0.00 in0.0 mm 0.00 in0.0 mm 0.06 in1.5 mm
04:00 AM 68.8°F20.4°C 67.0°F19.4°C 94% Calm Calm 1.0 mph1.6 kmh 29.82 in1009.8 mb 0.00 in0.0 mm 0.00 in0.0 mm 0.06 in1.5 mm
03:30 AM 69.2°F20.7°C 67.4°F19.7°C 94% 1.0 mph W1.6 kmh W 2.0 mph3.2 kmh 29.83 in1010.2 mb 0.01 in0.3 mm 0.00 in0.0 mm 0.06 in1.5 mm
03:00 AM 69.2°F20.7°C 67.4°F19.7°C 94% 0.2 mph NW0.3 kmh NW 3.0 mph4.8 kmh 29.83 in1010.2 mb 0.01 in0.3 mm 0.00 in0.0 mm 0.06 in1.5 mm